Time;durP1;ratioP1;P1;durP2;ratioP2;P2;SDS_P1;SDS_P2;PMS_P1;PMS_P2;Temp;Humidity;BMP_temperature;BMP_pressure;BME280_temperature;BME280_humidity;BME280_pressure;Samples;Min_cycle;Max_cycle;Signal;HPM_P1;HPM_P2
2023/06/29 00:01:27;;;;;;;5.30;4.30;;;14.50;94.80;;;;;;5021873;28;20180;-57
2023/06/29 00:03:52;;;;;;;6.43;4.30;;;14.50;94.80;;;;;;5027198;28;20196;-57
2023/06/29 00:06:18;;;;;;;6.37;3.90;;;14.40;94.70;;;;;;5026645;28;20187;-58
2023/06/29 00:08:44;;;;;;;4.30;3.90;;;14.40;94.90;;;;;;5025846;28;20204;-58
2023/06/29 00:11:09;;;;;;;7.73;4.27;;;14.40;95.30;;;;;;5030469;28;20188;-59
2023/06/29 00:13:35;;;;;;;7.00;3.80;;;14.40;95.40;;;;;;5026047;28;20215;-57
2023/06/29 00:16:01;;;;;;;7.10;3.70;;;14.40;95.60;;;;;;5025388;28;20192;-57
2023/06/29 00:18:30;;;;;;;7.10;3.87;;;14.30;95.70;;;;;;5025414;28;20527;-57
2023/06/29 00:20:56;;;;;;;6.03;3.90;;;14.30;96.20;;;;;;5027667;28;20589;-58
2023/06/29 00:23:23;;;;;;;5.70;4.57;;;14.30;96.10;;;;;;5027122;28;20438;-57
2023/06/29 00:25:48;;;;;;;4.73;4.03;;;14.20;96.50;;;;;;5025561;28;20473;-57
2023/06/29 00:28:14;;;;;;;3.93;3.50;;;14.20;96.10;;;;;;5026303;28;20438;-58
2023/06/29 00:30:39;;;;;;;5.90;4.03;;;14.20;96.10;;;;;;5027937;28;20183;-58
2023/06/29 00:33:05;;;;;;;6.70;4.37;;;14.10;96.40;;;;;;5023279;28;20185;-57
2023/06/29 00:35:32;;;;;;;9.17;4.40;;;14.10;96.80;;;;;;5028207;28;20195;-57
2023/06/29 00:37:58;;;;;;;8.30;4.80;;;14.10;96.90;;;;;;5024121;28;20883;-57
2023/06/29 00:40:24;;;;;;;9.20;4.33;;;14.00;96.90;;;;;;5025091;28;20450;-57
2023/06/29 00:42:49;;;;;;;5.67;4.47;;;14.00;97.40;;;;;;5029581;28;20238;-57
2023/06/29 00:45:16;;;;;;;7.30;4.90;;;14.00;97.30;;;;;;5017865;28;20215;-58
2023/06/29 00:47:41;;;;;;;5.20;3.97;;;14.00;97.40;;;;;;5026915;28;20258;-57
2023/06/29 00:50:08;;;;;;;10.73;4.80;;;13.90;97.80;;;;;;5024140;28;20553;-55
2023/06/29 00:52:34;;;;;;;7.23;4.10;;;13.90;98.20;;;;;;5024879;28;20179;-56
2023/06/29 00:55:00;;;;;;;7.87;4.30;;;13.90;98.00;;;;;;5024986;28;20430;-56
2023/06/29 00:57:26;;;;;;;7.90;4.60;;;13.90;98.20;;;;;;5023749;28;20831;-58
2023/06/29 00:59:51;;;;;;;6.17;4.00;;;13.80;98.50;;;;;;5021038;28;20220;-57
2023/06/29 01:02:17;;;;;;;6.50;4.13;;;13.80;98.70;;;;;;5025011;28;20603;-56
2023/06/29 01:04:45;;;;;;;6.90;4.30;;;13.70;99.10;;;;;;5029155;28;20203;-57
2023/06/29 01:07:24;;;;;;;8.83;4.43;;;13.70;99.40;;;;;;5023548;28;20430;-57
2023/06/29 01:09:52;;;;;;;7.50;4.73;;;13.60;99.90;;;;;;5024425;28;20528;-58
2023/06/29 01:12:19;;;;;;;5.47;4.30;;;13.60;99.90;;;;;;5020087;28;21095;-58
2023/06/29 01:14:45;;;;;;;5.10;4.60;;;13.60;99.90;;;;;;5029437;28;20431;-59
2023/06/29 01:17:14;;;;;;;5.33;4.67;;;13.60;99.90;;;;;;5022133;28;20434;-58
2023/06/29 01:19:43;;;;;;;8.13;4.63;;;13.50;99.90;;;;;;5021623;28;20521;-58
2023/06/29 01:22:23;;;;;;;8.20;4.57;;;13.50;99.90;;;;;;5023079;28;20435;-58
2023/06/29 01:24:48;;;;;;;7.20;5.03;;;13.50;99.90;;;;;;5025464;28;21029;-58
2023/06/29 01:27:15;;;;;;;6.27;4.50;;;13.50;99.90;;;;;;5021137;28;20470;-56
2023/06/29 01:29:41;;;;;;;7.57;4.60;;;13.50;99.90;;;;;;5013361;28;20235;-59
2023/06/29 01:32:08;;;;;;;5.70;4.80;;;13.40;99.90;;;;;;5021694;28;20466;-59
2023/06/29 01:34:35;;;;;;;5.67;4.40;;;13.40;99.90;;;;;;5021974;28;20438;-57
2023/06/29 01:37:12;;;;;;;6.57;4.60;;;13.40;99.90;;;;;;5028738;28;20450;-56
2023/06/29 01:39:58;;;;;;;13.20;5.23;;;13.40;99.90;;;;;;5024142;28;20541;-58
2023/06/29 01:42:25;;;;;;;4.80;4.30;;;13.40;99.90;;;;;;5019494;28;20434;-57
2023/06/29 01:44:53;;;;;;;6.53;4.40;;;13.40;99.90;;;;;;5021197;28;20462;-58
2023/06/29 01:47:20;;;;;;;7.80;4.93;;;13.40;99.90;;;;;;5022721;28;20435;-57
2023/06/29 01:49:46;;;;;;;9.30;4.93;;;13.30;99.90;;;;;;5026968;28;20442;-57
2023/06/29 01:52:12;;;;;;;9.10;4.80;;;13.30;99.90;;;;;;5027086;28;20528;-57
2023/06/29 01:54:37;;;;;;;7.93;4.77;;;13.30;99.90;;;;;;5024774;28;20219;-59
2023/06/29 01:57:06;;;;;;;7.33;5.00;;;13.30;99.90;;;;;;5021857;28;22100;-58
2023/06/29 01:59:32;;;;;;;5.23;4.37;;;13.30;99.90;;;;;;5025760;28;20195;-56
2023/06/29 02:01:58;;;;;;;6.23;4.70;;;13.30;99.90;;;;;;5026034;28;20433;-58
2023/06/29 02:04:23;;;;;;;10.27;4.83;;;13.20;99.90;;;;;;5017376;28;20214;-57
2023/06/29 02:06:49;;;;;;;5.87;4.63;;;13.20;99.90;;;;;;5021260;28;20235;-56
2023/06/29 02:09:15;;;;;;;5.80;4.97;;;13.20;99.90;;;;;;5018850;28;20196;-57
2023/06/29 02:11:40;;;;;;;6.10;4.67;;;13.20;99.90;;;;;;5021149;28;20187;-57
2023/06/29 02:14:06;;;;;;;7.63;5.00;;;13.20;99.90;;;;;;5021615;28;20176;-56
2023/06/29 02:16:32;;;;;;;6.57;4.97;;;13.10;99.90;;;;;;5015555;28;20207;-55
2023/06/29 02:18:58;;;;;;;5.80;5.20;;;13.10;99.90;;;;;;5023390;28;20214;-56
2023/06/29 02:21:23;;;;;;;5.90;4.53;;;13.10;99.90;;;;;;5022449;28;20193;-58
2023/06/29 02:23:49;;;;;;;10.50;4.77;;;13.10;99.90;;;;;;5024915;28;20198;-59
2023/06/29 02:26:14;;;;;;;6.67;4.97;;;13.00;99.90;;;;;;5015742;28;20234;-58
2023/06/29 02:28:40;;;;;;;6.17;4.73;;;13.00;99.90;;;;;;5023680;28;20199;-56
2023/06/29 02:31:06;;;;;;;7.00;4.50;;;13.00;99.90;;;;;;5020941;28;20266;-56
2023/06/29 02:33:31;;;;;;;7.00;5.10;;;13.00;99.90;;;;;;5025290;28;20171;-56
2023/06/29 02:35:57;;;;;;;5.23;4.73;;;13.00;99.90;;;;;;5020441;28;20185;-56
2023/06/29 02:38:22;;;;;;;6.00;4.97;;;13.00;99.90;;;;;;5023464;28;20285;-58
2023/06/29 02:40:48;;;;;;;8.03;5.13;;;12.90;99.90;;;;;;5021861;28;20184;-57
2023/06/29 02:43:16;;;;;;;9.37;4.90;;;12.90;99.90;;;;;;5017193;28;20188;-58
2023/06/29 02:45:42;;;;;;;6.70;4.90;;;12.90;99.90;;;;;;5021300;28;20266;-57
2023/06/29 02:48:08;;;;;;;9.40;5.10;;;12.90;99.90;;;;;;5021555;28;20509;-59
2023/06/29 02:50:33;;;;;;;6.67;5.23;;;12.90;99.90;;;;;;5022496;28;20230;-58
2023/06/29 02:52:59;;;;;;;7.80;5.27;;;12.80;99.90;;;;;;5021665;28;20189;-58
2023/06/29 02:55:25;;;;;;;8.20;5.23;;;12.80;99.90;;;;;;5025252;28;20532;-57
2023/06/29 02:57:51;;;;;;;8.70;4.90;;;12.70;99.90;;;;;;5024420;28;20527;-59
2023/06/29 03:00:17;;;;;;;5.00;4.50;;;12.70;99.90;;;;;;5024722;28;20610;-56
2023/06/29 03:02:42;;;;;;;4.80;4.30;;;12.70;99.90;;;;;;5024307;28;20186;-58
2023/06/29 03:05:08;;;;;;;5.20;4.70;;;12.70;99.90;;;;;;5021358;28;20483;-57
2023/06/29 03:07:34;;;;;;;6.20;5.00;;;12.70;99.90;;;;;;5022935;28;20258;-57
2023/06/29 03:09:59;;;;;;;5.20;4.70;;;12.70;99.90;;;;;;5017436;28;20227;-58
2023/06/29 03:12:25;;;;;;;7.50;5.20;;;12.70;99.90;;;;;;5019078;28;20184;-57
2023/06/29 03:14:51;;;;;;;6.50;4.70;;;12.70;99.90;;;;;;5020218;28;20672;-57
2023/06/29 03:17:16;;;;;;;6.37;5.20;;;12.70;99.90;;;;;;5022494;28;20558;-56
2023/06/29 03:19:42;;;;;;;12.63;5.37;;;12.60;99.90;;;;;;5026576;28;20203;-57
2023/06/29 03:22:08;;;;;;;8.00;5.20;;;12.60;99.90;;;;;;5022029;28;20233;-57
2023/06/29 03:24:33;;;;;;;7.93;5.23;;;12.60;99.90;;;;;;5018413;28;20199;-57
2023/06/29 03:26:59;;;;;;;11.83;5.27;;;12.50;99.90;;;;;;5020344;28;20673;-58
2023/06/29 03:29:25;;;;;;;7.60;5.50;;;12.50;99.90;;;;;;5026104;28;20201;-58
2023/06/29 03:31:51;;;;;;;7.20;5.50;;;12.50;99.90;;;;;;5022219;28;20181;-57
2023/06/29 03:34:16;;;;;;;6.33;4.53;;;12.50;99.90;;;;;;5012671;28;20481;-56
2023/06/29 03:36:42;;;;;;;8.23;5.30;;;12.50;99.90;;;;;;5017005;28;20184;-57
2023/06/29 03:39:07;;;;;;;6.10;5.50;;;12.50;99.90;;;;;;5025137;28;20211;-57
2023/06/29 03:41:33;;;;;;;7.60;5.83;;;12.50;99.90;;;;;;5023499;28;20191;-57
2023/06/29 03:43:58;;;;;;;5.93;4.90;;;12.50;99.90;;;;;;5025933;28;20556;-57
2023/06/29 03:46:24;;;;;;;5.60;5.10;;;12.50;99.90;;;;;;5024581;28;20548;-57
2023/06/29 03:48:50;;;;;;;10.03;5.53;;;12.50;99.90;;;;;;5015030;28;20218;-57
2023/06/29 03:51:15;;;;;;;8.77;5.80;;;12.50;99.90;;;;;;5021948;28;20179;-57
2023/06/29 03:53:41;;;;;;;6.63;5.50;;;12.50;99.90;;;;;;5018019;28;20175;-57
2023/06/29 03:56:06;;;;;;;8.13;4.97;;;12.50;99.90;;;;;;5017961;28;20633;-57
2023/06/29 03:58:32;;;;;;;7.23;6.00;;;12.50;99.90;;;;;;5018904;28;20200;-57
2023/06/29 04:00:58;;;;;;;8.90;6.07;;;12.50;99.90;;;;;;5020646;28;20180;-57
2023/06/29 04:03:24;;;;;;;7.43;6.07;;;12.50;99.90;;;;;;5019313;28;20187;-57
2023/06/29 04:05:49;;;;;;;6.10;5.07;;;12.50;99.90;;;;;;5014313;28;20262;-50
2023/06/29 04:08:15;;;;;;;6.37;5.10;;;12.50;99.90;;;;;;5018243;28;20208;-52
2023/06/29 04:10:40;;;;;;;6.17;5.20;;;12.50;99.90;;;;;;5019235;28;20168;-52
2023/06/29 04:13:06;;;;;;;6.43;5.20;;;12.50;99.90;;;;;;5014902;28;20865;-55
2023/06/29 04:15:32;;;;;;;5.63;5.13;;;12.50;99.90;;;;;;5011433;28;20188;-57
2023/06/29 04:17:58;;;;;;;11.70;4.90;;;12.50;99.90;;;;;;5017653;28;20187;-59
2023/06/29 04:20:24;;;;;;;8.13;5.77;;;12.50;99.90;;;;;;5011395;28;20447;-58
2023/06/29 04:22:50;;;;;;;10.70;6.37;;;12.60;99.90;;;;;;5020489;28;20215;-59
2023/06/29 04:25:15;;;;;;;9.10;5.60;;;12.60;99.90;;;;;;5019908;28;20787;-58
2023/06/29 04:27:43;;;;;;;7.70;5.30;;;12.60;99.90;;;;;;5017800;28;20176;-59
2023/06/29 04:30:10;;;;;;;5.77;4.77;;;12.50;99.90;;;;;;5006978;28;20473;-55
2023/06/29 04:32:36;;;;;;;7.53;6.30;;;12.50;99.90;;;;;;5012273;28;20431;-56
2023/06/29 04:35:02;;;;;;;9.30;6.43;;;12.50;99.90;;;;;;5014290;28;20501;-57
2023/06/29 04:37:40;;;;;;;7.50;6.13;;;12.60;99.90;;;;;;5017683;28;20198;-59
2023/06/29 04:40:09;;;;;;;6.77;5.57;;;12.60;99.90;;;;;;5019396;28;20212;-59
2023/06/29 04:42:43;;;;;;;5.63;5.00;;;12.70;99.90;;;;;;5014992;28;20434;-58
2023/06/29 04:45:12;;;;;;;10.83;6.00;;;12.70;99.90;;;;;;5015666;28;20457;-58
2023/06/29 04:47:40;;;;;;;11.47;5.60;;;12.80;99.90;;;;;;5024922;28;20426;-58
2023/06/29 04:50:09;;;;;;;8.60;5.70;;;12.90;99.90;;;;;;5025791;28;20535;-59
2023/06/29 04:52:36;;;;;;;7.50;5.67;;;12.90;99.90;;;;;;5021422;28;20492;-59
2023/06/29 04:55:04;;;;;;;6.00;5.00;;;13.00;99.90;;;;;;5021925;28;20457;-57
2023/06/29 04:57:29;;;;;;;5.53;5.00;;;13.10;99.90;;;;;;5009740;28;20442;-59
2023/06/29 04:59:55;;;;;;;7.47;5.37;;;13.10;99.90;;;;;;5021586;28;20454;-59
2023/06/29 05:02:20;;;;;;;7.30;5.23;;;13.10;99.90;;;;;;5018704;28;20192;-58
2023/06/29 05:04:48;;;;;;;9.63;5.20;;;13.20;99.90;;;;;;5025277;28;20215;-56
2023/06/29 05:07:13;;;;;;;9.53;5.23;;;13.20;99.90;;;;;;5022309;28;20207;-60
2023/06/29 05:09:39;;;;;;;6.10;5.50;;;13.30;99.90;;;;;;5018107;28;20482;-59
2023/06/29 05:12:06;;;;;;;9.10;5.37;;;13.40;99.90;;;;;;5013304;28;20233;-58
2023/06/29 05:14:32;;;;;;;6.50;5.10;;;13.50;99.90;;;;;;5021032;28;20874;-57
2023/06/29 05:16:57;;;;;;;9.33;5.70;;;13.60;99.90;;;;;;5025093;28;20467;-56
2023/06/29 05:19:23;;;;;;;6.93;5.23;;;13.60;99.90;;;;;;5023993;28;20630;-57
2023/06/29 05:21:48;;;;;;;6.13;5.27;;;13.60;99.90;;;;;;5021503;28;20278;-59
2023/06/29 05:24:14;;;;;;;7.73;5.40;;;13.70;99.90;;;;;;5016683;28;20672;-58
2023/06/29 05:26:40;;;;;;;8.07;5.23;;;13.70;99.90;;;;;;5022518;28;20171;-60
2023/06/29 05:29:06;;;;;;;8.90;5.70;;;13.80;99.90;;;;;;5022636;28;20250;-59
2023/06/29 05:31:32;;;;;;;7.23;5.53;;;13.90;99.90;;;;;;5015810;28;20488;-59
2023/06/29 05:33:57;;;;;;;10.27;5.47;;;13.90;99.90;;;;;;5017644;28;20667;-58
2023/06/29 05:36:23;;;;;;;11.50;6.47;;;14.00;99.90;;;;;;5019687;28;20530;-59
2023/06/29 05:38:49;;;;;;;12.43;6.33;;;14.00;99.90;;;;;;5024377;28;20246;-51
2023/06/29 05:41:14;;;;;;;8.10;5.60;;;14.10;99.50;;;;;;5018602;28;20175;-59
2023/06/29 05:43:40;;;;;;;10.23;6.23;;;14.10;99.90;;;;;;5021480;28;20180;-60
2023/06/29 05:46:06;;;;;;;15.83;7.40;;;14.30;99.90;;;;;;5020791;28;20808;-59
2023/06/29 05:48:31;;;;;;;11.17;8.23;;;14.30;99.90;;;;;;5018702;28;20223;-58
2023/06/29 05:50:57;;;;;;;13.50;9.20;;;14.40;99.60;;;;;;5015109;28;20180;-57
2023/06/29 05:53:22;;;;;;;19.93;8.47;;;14.60;99.80;;;;;;5020424;28;20190;-57
2023/06/29 05:55:48;;;;;;;12.90;8.37;;;14.60;99.10;;;;;;5022081;28;20172;-56
2023/06/29 05:58:14;;;;;;;11.10;8.10;;;14.70;99.90;;;;;;5015347;28;20191;-58
2023/06/29 06:00:39;;;;;;;14.60;9.33;;;14.90;99.10;;;;;;5021444;28;20676;-57
2023/06/29 06:03:05;;;;;;;14.03;9.07;;;15.00;96.60;;;;;;5028919;28;20190;-56
2023/06/29 06:05:31;;;;;;;16.53;7.97;;;15.10;94.90;;;;;;5023575;28;20287;-54
2023/06/29 06:07:57;;;;;;;16.20;8.00;;;15.20;93.10;;;;;;5025577;28;20629;-55
2023/06/29 06:10:22;;;;;;;10.17;7.53;;;15.20;93.10;;;;;;5019229;28;20572;-57
2023/06/29 06:12:48;;;;;;;11.97;8.30;;;15.20;93.60;;;;;;5020507;28;20176;-57
2023/06/29 06:15:14;;;;;;;11.03;8.17;;;15.20;94.40;;;;;;5023687;28;20215;-59
2023/06/29 06:17:40;;;;;;;12.50;8.80;;;15.20;95.10;;;;;;5026776;28;20553;-55
2023/06/29 06:20:06;;;;;;;11.63;7.60;;;15.20;95.70;;;;;;5024186;28;20208;-56
2023/06/29 06:22:33;;;;;;;12.63;7.40;;;15.30;94.90;;;;;;5021340;28;20783;-55
2023/06/29 06:24:59;;;;;;;11.10;7.23;;;15.50;95.10;;;;;;5026651;28;20545;-56
2023/06/29 06:27:24;;;;;;;12.40;8.00;;;15.60;95.00;;;;;;5021494;28;20527;-57
2023/06/29 06:29:50;;;;;;;9.73;7.00;;;15.80;92.90;;;;;;5022540;28;20250;-56
2023/06/29 06:32:16;;;;;;;10.87;6.43;;;15.90;90.50;;;;;;5023807;28;20736;-56
2023/06/29 06:34:41;;;;;;;9.17;6.70;;;16.00;84.90;;;;;;5020186;28;20180;-55
2023/06/29 06:37:07;;;;;;;9.63;5.83;;;16.10;83.50;;;;;;5018595;28;20195;-56
2023/06/29 06:39:32;;;;;;;8.57;5.60;;;16.20;83.80;;;;;;5021386;28;20231;-55
2023/06/29 06:41:59;;;;;;;9.50;6.00;;;16.40;82.60;;;;;;5014155;28;20800;-56
2023/06/29 06:44:25;;;;;;;6.03;5.43;;;16.60;81.50;;;;;;5016850;28;20731;-57
2023/06/29 06:46:51;;;;;;;8.03;5.43;;;16.70;79.40;;;;;;5022543;28;20426;-56
2023/06/29 06:49:16;;;;;;;13.43;5.90;;;16.80;77.80;;;;;;5023609;28;20994;-55
2023/06/29 06:51:42;;;;;;;5.07;4.57;;;17.00;77.60;;;;;;5021718;28;20203;-57
2023/06/29 06:54:08;;;;;;;9.50;5.63;;;17.10;77.20;;;;;;5020456;28;20373;-57
2023/06/29 06:56:33;;;;;;;7.00;4.80;;;17.20;76.10;;;;;;5019352;28;20263;-57
2023/06/29 06:58:59;;;;;;;8.10;4.90;;;17.40;75.60;;;;;;5020678;28;20234;-57
2023/06/29 07:01:26;;;;;;;9.90;4.90;;;17.50;73.80;;;;;;5024329;28;20633;-57
2023/06/29 07:03:51;;;;;;;7.97;4.60;;;17.60;73.30;;;;;;5020698;28;20255;-57
2023/06/29 07:06:18;;;;;;;8.93;4.90;;;17.80;73.40;;;;;;5019350;28;20986;-57
2023/06/29 07:08:43;;;;;;;10.17;5.30;;;17.90;71.90;;;;;;5022258;28;20720;-59
2023/06/29 07:11:09;;;;;;;6.77;4.40;;;18.00;70.70;;;;;;5022482;28;20446;-57
2023/06/29 07:13:35;;;;;;;9.50;5.00;;;18.10;70.30;;;;;;5025761;28;21194;-57
2023/06/29 07:16:00;;;;;;;7.63;5.07;;;18.20;70.20;;;;;;5013461;28;20229;-57
2023/06/29 07:18:26;;;;;;;6.97;4.73;;;18.40;69.80;;;;;;5012195;28;20207;-51
2023/06/29 07:20:51;;;;;;;4.93;3.57;;;18.60;68.50;;;;;;5022186;28;20192;-59
2023/06/29 07:23:18;;;;;;;9.03;4.00;;;18.80;67.00;;;;;;5015394;28;20181;-57
2023/06/29 07:25:43;;;;;;;4.47;4.07;;;19.00;65.40;;;;;;5017751;28;20631;-59
2023/06/29 07:28:09;;;;;;;5.83;3.50;;;19.30;64.20;;;;;;5020330;28;20441;-59
2023/06/29 07:30:34;;;;;;;4.47;3.40;;;19.40;62.80;;;;;;5024229;28;20176;-58
2023/06/29 07:33:00;;;;;;;3.93;3.20;;;19.60;61.90;;;;;;5019992;28;20688;-59
2023/06/29 07:35:26;;;;;;;4.93;3.40;;;19.80;61.40;;;;;;5022706;28;20262;-58
2023/06/29 07:37:51;;;;;;;4.77;3.83;;;20.00;60.30;;;;;;5019229;28;20260;-57
2023/06/29 07:40:17;;;;;;;8.00;3.27;;;20.20;58.80;;;;;;5003554;28;21152;-57
2023/06/29 07:42:43;;;;;;;6.10;3.30;;;20.20;57.50;;;;;;5011213;28;20642;-58
2023/06/29 07:45:08;;;;;;;4.00;2.90;;;20.40;57.30;;;;;;5018727;28;20208;-58
2023/06/29 07:47:34;;;;;;;7.50;2.97;;;20.50;57.10;;;;;;5016246;28;20180;-59
2023/06/29 07:50:00;;;;;;;4.60;2.73;;;20.50;57.60;;;;;;5017664;28;20302;-58
2023/06/29 07:52:26;;;;;;;4.77;3.10;;;20.50;57.20;;;;;;5018760;28;20199;-60
2023/06/29 07:54:52;;;;;;;10.27;3.33;;;20.40;57.50;;;;;;5018992;28;20787;-58
2023/06/29 07:57:18;;;;;;;7.57;3.03;;;20.40;57.80;;;;;;5018719;28;20433;-59
2023/06/29 07:59:43;;;;;;;9.30;3.17;;;20.30;57.80;;;;;;5015643;28;20192;-59
2023/06/29 08:02:09;;;;;;;6.20;3.17;;;20.30;58.10;;;;;;5016911;28;20184;-59
2023/06/29 08:04:35;;;;;;;6.13;3.27;;;20.30;58.40;;;;;;5018286;28;20632;-59
2023/06/29 08:07:00;;;;;;;8.00;3.17;;;20.30;58.80;;;;;;4998361;28;20230;-58
2023/06/29 08:09:26;;;;;;;8.67;3.80;;;20.40;59.10;;;;;;5016972;28;20196;-59
2023/06/29 08:11:51;;;;;;;3.87;2.90;;;20.60;58.90;;;;;;5013068;28;20180;-59
2023/06/29 08:14:17;;;;;;;3.97;3.20;;;20.90;56.70;;;;;;5015237;28;20661;-58
2023/06/29 08:16:43;;;;;;;5.00;3.67;;;20.90;56.40;;;;;;5010610;28;20762;-58
2023/06/29 08:19:08;;;;;;;8.70;3.20;;;21.00;56.70;;;;;;5014498;28;20283;-58
2023/06/29 08:21:34;;;;;;;5.93;3.70;;;20.90;56.30;;;;;;5013253;28;20183;-57
2023/06/29 08:23:59;;;;;;;6.00;3.00;;;20.90;55.90;;;;;;5021822;28;20262;-58
2023/06/29 08:26:25;;;;;;;6.53;2.93;;;20.90;56.00;;;;;;5023378;28;20236;-58
2023/06/29 08:28:51;;;;;;;6.00;2.77;;;21.00;56.20;;;;;;5017515;28;20192;-58
2023/06/29 08:31:18;;;;;;;4.33;3.27;;;21.10;56.20;;;;;;5018045;28;20187;-58
2023/06/29 08:33:45;;;;;;;6.70;3.00;;;21.20;56.40;;;;;;5022445;28;20237;-58
2023/06/29 08:36:10;;;;;;;9.20;3.30;;;21.30;56.00;;;;;;5021812;28;20434;-59
2023/06/29 08:38:36;;;;;;;3.80;3.20;;;21.40;55.30;;;;;;5020515;28;20465;-58
2023/06/29 08:41:04;;;;;;;5.40;3.37;;;21.60;54.40;;;;;;5021501;28;20324;-56
2023/06/29 08:43:30;;;;;;;4.43;2.97;;;21.70;53.80;;;;;;5023886;28;20195;-58
2023/06/29 08:45:55;;;;;;;6.30;3.00;;;21.80;53.50;;;;;;5021136;28;20474;-61
2023/06/29 08:48:22;;;;;;;5.47;3.07;;;22.00;53.60;;;;;;5025602;28;20195;-59
2023/06/29 08:50:59;;;;;;;4.23;2.60;;;22.10;53.70;;;;;;5023360;28;20203;-58
2023/06/29 08:53:25;;;;;;;5.27;3.10;;;22.20;52.10;;;;;;5019242;28;20861;-58
2023/06/29 08:55:51;;;;;;;4.60;2.90;;;22.30;51.40;;;;;;5013070;28;20517;-57
2023/06/29 08:58:21;;;;;;;5.10;2.70;;;22.40;51.30;;;;;;5018330;28;20460;-58
2023/06/29 09:00:47;;;;;;;3.00;2.57;;;22.40;49.90;;;;;;5016512;28;20241;-54
2023/06/29 09:03:14;;;;;;;5.70;2.73;;;22.50;50.40;;;;;;5019132;28;20431;-58
2023/06/29 09:05:39;;;;;;;10.17;2.90;;;22.70;50.00;;;;;;5015422;28;21248;-58
2023/06/29 09:08:05;;;;;;;7.30;2.80;;;22.80;49.80;;;;;;5021995;28;20430;-59
2023/06/29 09:10:31;;;;;;;4.17;2.40;;;23.00;49.30;;;;;;5018824;28;20196;-51
2023/06/29 09:12:57;;;;;;;7.50;2.27;;;23.00;48.80;;;;;;5017845;28;20230;-59
2023/06/29 09:15:25;;;;;;;11.40;3.50;;;23.00;49.00;;;;;;5018603;28;20184;-59
2023/06/29 09:17:55;;;;;;;4.07;3.17;;;23.20;49.80;;;;;;5025996;28;20176;-60
2023/06/29 09:20:21;;;;;;;5.80;3.23;;;23.30;49.70;;;;;;5019891;28;20438;-59
2023/06/29 09:22:51;;;;;;;4.40;3.37;;;23.40;48.30;;;;;;5021121;28;20438;-59
2023/06/29 09:25:17;;;;;;;7.57;3.30;;;23.50;48.00;;;;;;5016647;28;20951;-58
2023/06/29 09:27:42;;;;;;;5.63;2.70;;;23.60;49.00;;;;;;5021835;28;20493;-60
2023/06/29 09:30:17;;;;;;;2.97;2.67;;;23.70;47.90;;;;;;5020098;28;20975;-59
2023/06/29 09:32:43;;;;;;;8.17;3.57;;;23.90;47.50;;;;;;5017663;28;20298;-58
2023/06/29 09:35:09;;;;;;;3.80;2.60;;;24.00;47.30;;;;;;5013503;28;20526;-59
2023/06/29 09:37:36;;;;;;;8.30;3.50;;;24.20;48.30;;;;;;5018849;28;20222;-59
2023/06/29 09:40:12;;;;;;;4.77;3.10;;;24.30;48.40;;;;;;5020179;28;20446;-60
2023/06/29 09:42:38;;;;;;;4.03;2.73;;;24.50;48.30;;;;;;5015694;28;20457;-60
2023/06/29 09:45:14;;;;;;;6.07;3.80;;;24.70;48.10;;;;;;5020336;28;20454;-58
2023/06/29 09:47:48;;;;;;;6.90;4.20;;;24.80;46.10;;;;;;5017699;28;20426;-60
2023/06/29 09:50:22;;;;;;;5.73;3.73;;;24.90;45.10;;;;;;5020187;28;20837;-59
2023/06/29 09:52:50;;;;;;;8.70;4.53;;;25.10;44.80;;;;;;5021472;28;20781;-59
2023/06/29 09:55:17;;;;;;;7.10;3.73;;;25.20;44.40;;;;;;5017173;28;20439;-60
2023/06/29 09:57:45;;;;;;;4.60;2.90;;;25.20;45.20;;;;;;5015515;28;20430;-59
2023/06/29 10:00:13;;;;;;;9.50;4.10;;;25.40;46.00;;;;;;5012492;28;20573;-60
2023/06/29 10:02:41;;;;;;;10.73;4.07;;;25.60;46.30;;;;;;5018896;28;20437;-60
2023/06/29 10:05:08;;;;;;;8.00;4.90;;;25.70;45.60;;;;;;5016724;28;20470;-60
2023/06/29 10:07:35;;;;;;;9.47;5.03;;;25.80;44.30;;;;;;5018258;28;21315;-58
2023/06/29 10:10:04;;;;;;;10.93;5.97;;;25.90;44.00;;;;;;5018822;28;20599;-50
2023/06/29 10:12:31;;;;;;;10.10;5.17;;;26.10;43.10;;;;;;5017895;28;20437;-53
2023/06/29 10:15:08;;;;;;;9.10;5.20;;;26.10;43.00;;;;;;5023025;28;20446;-51
2023/06/29 10:17:59;;;;;;;8.30;5.03;;;25.90;42.90;;;;;;5021027;28;20815;-53
2023/06/29 10:20:26;;;;;;;10.40;5.73;;;25.90;43.00;;;;;;5020387;28;20449;-51
2023/06/29 10:22:54;;;;;;;7.80;5.20;;;25.90;43.70;;;;;;5018220;28;22169;-51
2023/06/29 10:25:22;;;;;;;8.23;5.30;;;26.00;44.60;;;;;;5017135;28;20485;-60
2023/06/29 10:27:51;;;;;;;11.20;5.97;;;26.10;44.20;;;;;;5027564;28;20469;-61
2023/06/29 10:30:20;;;;;;;9.13;5.60;;;26.30;43.80;;;;;;5026245;28;20446;-59
2023/06/29 10:32:49;;;;;;;8.57;5.20;;;26.40;43.00;;;;;;5016229;28;20461;-59
2023/06/29 10:35:15;;;;;;;10.60;5.63;;;26.40;41.10;;;;;;5018673;28;20502;-61
2023/06/29 10:37:42;;;;;;;9.57;5.80;;;26.30;41.50;;;;;;5016303;28;20525;-61
2023/06/29 10:40:15;;;;;;;8.30;5.10;;;26.30;41.50;;;;;;5021640;28;20214;-61
2023/06/29 10:42:40;;;;;;;7.80;5.30;;;26.40;42.20;;;;;;5023110;28;20464;-61
2023/06/29 10:45:18;;;;;;;8.60;5.97;;;26.50;41.40;;;;;;5020841;28;20892;-60
2023/06/29 10:47:56;;;;;;;11.53;6.60;;;26.50;40.80;;;;;;5014136;28;20184;-61
2023/06/29 10:50:29;;;;;;;10.90;6.87;;;26.50;41.30;;;;;;5020736;28;20516;-61
2023/06/29 10:53:02;;;;;;;9.07;5.20;;;26.70;42.60;;;;;;5021589;28;20422;-60
2023/06/29 10:55:38;;;;;;;10.93;6.87;;;27.00;43.20;;;;;;5020434;28;20461;-60
2023/06/29 10:58:24;;;;;;;18.40;11.67;;;27.20;42.50;;;;;;5025330;28;20178;-61
2023/06/29 11:00:53;;;;;;;17.63;9.70;;;27.30;41.00;;;;;;5023492;28;20188;-61
2023/06/29 11:03:20;;;;;;;14.77;7.97;;;27.30;41.90;;;;;;5023421;28;20174;-61
2023/06/29 11:05:54;;;;;;;15.70;9.70;;;27.10;39.90;;;;;;5021611;28;20195;-60
2023/06/29 11:08:21;;;;;;;15.30;9.93;;;26.80;41.20;;;;;;5015129;28;20175;-61
2023/06/29 11:10:46;;;;;;;19.40;11.63;;;26.50;41.20;;;;;;5017390;28;20415;-58
2023/06/29 11:13:12;;;;;;;24.63;13.43;;;26.30;41.60;;;;;;5017451;28;20461;-60
2023/06/29 11:15:38;;;;;;;23.33;13.80;;;26.00;41.70;;;;;;5018522;28;20678;-59
2023/06/29 11:18:06;;;;;;;18.70;11.27;;;25.80;42.30;;;;;;5017596;28;20229;-61
2023/06/29 11:20:33;;;;;;;22.03;10.50;;;25.60;43.00;;;;;;5013403;28;20438;-60
2023/06/29 11:23:00;;;;;;;17.00;10.27;;;25.40;43.00;;;;;;5017096;28;20909;-61
2023/06/29 11:25:27;;;;;;;18.27;10.30;;;25.30;43.70;;;;;;5022776;28;20492;-61
2023/06/29 11:27:53;;;;;;;19.17;11.10;;;25.50;44.90;;;;;;5019694;28;20474;-61
2023/06/29 11:30:20;;;;;;;19.80;7.97;;;25.80;43.80;;;;;;5014587;28;21005;-61
2023/06/29 11:32:48;;;;;;;12.80;7.33;;;26.10;43.50;;;;;;5014932;28;20206;-61
2023/06/29 11:35:14;;;;;;;9.07;6.40;;;26.30;43.60;;;;;;5019092;28;20432;-60
2023/06/29 11:37:40;;;;;;;17.10;9.03;;;26.50;43.50;;;;;;5018073;28;20545;-60
2023/06/29 11:40:16;;;;;;;11.77;8.27;;;26.50;42.20;;;;;;5022295;28;20237;-60
2023/06/29 11:42:42;;;;;;;13.73;7.70;;;26.70;43.70;;;;;;5017753;28;20191;-60
2023/06/29 11:45:09;;;;;;;10.93;7.80;;;26.90;44.00;;;;;;5016834;28;20520;-61
2023/06/29 11:47:35;;;;;;;9.43;6.83;;;27.10;44.60;;;;;;5022679;28;20418;-62
2023/06/29 11:50:03;;;;;;;12.63;7.00;;;27.40;44.00;;;;;;5017965;28;20470;-59
2023/06/29 11:52:32;;;;;;;13.83;7.30;;;27.70;42.90;;;;;;5022771;28;20190;-60
2023/06/29 11:55:01;;;;;;;15.13;7.40;;;27.90;42.00;;;;;;5017821;28;20179;-61
2023/06/29 11:57:31;;;;;;;11.73;6.50;;;28.20;41.70;;;;;;5013626;28;20745;-60
2023/06/29 11:59:57;;;;;;;12.17;7.80;;;28.40;41.80;;;;;;5016765;28;20680;-61
2023/06/29 12:02:23;;;;;;;12.40;8.03;;;28.60;41.80;;;;;;5021622;28;20187;-59
2023/06/29 12:05:03;;;;;;;15.07;8.23;;;28.80;40.60;;;;;;5018762;28;20228;-59
2023/06/29 12:07:38;;;;;;;15.90;7.77;;;29.00;40.00;;;;;;5020960;28;20176;-59
2023/06/29 12:10:06;;;;;;;12.52;8.98;;;29.00;40.60;;;;;;5020167;28;20199;-60
2023/06/29 12:12:40;;;;;;;14.13;8.80;;;29.10;39.00;;;;;;5020742;28;20698;-60
2023/06/29 12:15:16;;;;;;;11.35;8.23;;;29.10;39.60;;;;;;5017079;28;20645;-59
2023/06/29 12:17:42;;;;;;;13.32;7.85;;;29.10;40.20;;;;;;5024012;28;20533;-57
2023/06/29 12:20:15;;;;;;;14.23;9.18;;;29.10;38.70;;;;;;5017807;28;20200;-56
2023/06/29 12:22:42;;;;;;;14.20;7.80;;;28.90;39.90;;;;;;5024042;28;20207;-58
2023/06/29 12:25:16;;;;;;;11.48;7.97;;;28.90;41.00;;;;;;5017974;28;20207;-58
2023/06/29 12:27:44;;;;;;;18.13;8.13;;;29.10;39.80;;;;;;5022482;28;20179;-57
2023/06/29 12:30:14;;;;;;;16.83;9.20;;;29.30;39.70;;;;;;5015056;28;20194;-59
2023/06/29 12:32:44;;;;;;;13.98;8.93;;;29.50;38.90;;;;;;5016596;28;20165;-57
2023/06/29 12:35:10;;;;;;;13.90;8.93;;;29.60;39.20;;;;;;5019922;28;20191;-58
2023/06/29 12:37:36;;;;;;;13.65;9.32;;;29.50;39.80;;;;;;5025841;28;20187;-59
2023/06/29 12:40:04;;;;;;;12.50;8.50;;;29.20;38.40;;;;;;5015498;28;20293;-58
2023/06/29 12:42:30;;;;;;;16.80;9.77;;;29.00;39.10;;;;;;5020066;28;20175;-60